createdAt,value
2023-01-13T00:01:18.291Z,99813.10
2023-01-13T00:05:21.631Z,99810.27
2023-01-13T00:09:25.169Z,99816.39
2023-01-13T00:13:28.528Z,99815.09
2023-01-13T00:17:31.888Z,99818.69
2023-01-13T00:21:36.026Z,99817.92
2023-01-13T00:25:39.461Z,99821.52
2023-01-13T00:29:42.826Z,99820.18
2023-01-13T00:33:46.911Z,99822.02
2023-01-13T00:37:50.228Z,99823.40
2023-01-13T00:42:11.984Z,99826.31
2023-01-13T00:46:18.367Z,99832.34
2023-01-13T00:50:21.744Z,99830.63
2023-01-13T00:54:25.796Z,99828.68
2023-01-13T00:58:31.194Z,99822.61
2023-01-13T01:02:34.570Z,99815.94
2023-01-13T01:06:38.322Z,99809.27
2023-01-13T01:10:41.834Z,99805.62
2023-01-13T01:14:45.311Z,99803.85
2023-01-13T01:18:50.500Z,99796.31
2023-01-13T01:22:53.843Z,99792.84
2023-01-13T01:26:57.175Z,99787.37
2023-01-13T01:31:00.690Z,99780.84
2023-01-13T01:35:05.208Z,99779.78
2023-01-13T01:39:08.610Z,99779.86
2023-01-13T01:43:39.999Z,99777.31
2023-01-13T01:47:43.596Z,99770.33
2023-01-13T01:51:59.018Z,99765.58
2023-01-13T01:56:03.778Z,99762.69
2023-01-13T02:00:07.958Z,99763.56
2023-01-13T02:04:23.527Z,99759.30
2023-01-13T02:08:26.868Z,99747.83
2023-01-13T02:12:30.594Z,99739.95
2023-01-13T02:16:34.131Z,99738.25
2023-01-13T02:20:56.889Z,99732.46
2023-01-13T02:25:20.678Z,99728.54
2023-01-13T02:30:04.963Z,99718.15
2023-01-13T02:34:20.967Z,99708.97
2023-01-13T02:38:31.783Z,99705.41
2023-01-13T02:42:59.604Z,99702.73
2023-01-13T02:47:19.211Z,99704.80
2023-01-13T02:51:27.374Z,99706.36
2023-01-13T02:55:36.554Z,99707.34
2023-01-13T02:59:41.216Z,99705.36
2023-01-13T03:03:44.866Z,99707.27
2023-01-13T03:08:15.881Z,99706.42
2023-01-13T03:12:32.870Z,99700.23
2023-01-13T03:16:58.509Z,99699.02
2023-01-13T03:21:11.997Z,99690.42
2023-01-13T03:25:26.484Z,99689.08
2023-01-13T03:30:14.409Z,99690.11
2023-01-13T03:34:22.727Z,99688.14
2023-01-13T03:38:32.991Z,99689.39
2023-01-13T03:42:38.607Z,99686.97
2023-01-13T03:46:45.221Z,99686.17
2023-01-13T03:50:52.462Z,99687.59
2023-01-13T03:55:02.044Z,99685.52
2023-01-13T03:59:08.270Z,99685.90
2023-01-13T04:03:20.316Z,99688.65
2023-01-13T04:07:38.869Z,99689.25
2023-01-13T04:11:59.176Z,99684.30
2023-01-13T04:16:02.729Z,99682.38
2023-01-13T04:20:06.653Z,99677.95
2023-01-13T04:24:10.285Z,99674.94
2023-01-13T04:28:14.633Z,99670.32
2023-01-13T04:32:18.039Z,99671.34
2023-01-13T04:36:25.453Z,99670.52
2023-01-13T04:40:28.739Z,99667.91
2023-01-13T04:44:35.484Z,99668.52
2023-01-13T04:48:38.764Z,99669.80
2023-01-13T04:52:42.023Z,99663.98
2023-01-13T04:56:45.327Z,99663.77
2023-01-13T05:00:50.885Z,99661.46
2023-01-13T05:04:54.245Z,99662.12
2023-01-13T05:08:57.648Z,99656.03
2023-01-13T05:13:19.653Z,99653.59
2023-01-13T05:17:25.357Z,99648.61
2023-01-13T05:21:46.980Z,99650.53
2023-01-13T05:25:51.319Z,99661.54
2023-01-13T05:29:56.488Z,99667.90
2023-01-13T05:33:59.812Z,99665.63
2023-01-13T05:38:03.091Z,99666.73
2023-01-13T05:42:25.240Z,99669.62
2023-01-13T05:46:28.565Z,99665.25
2023-01-13T05:50:31.927Z,99664.86
2023-01-13T05:54:41.426Z,99665.95
2023-01-13T05:58:45.061Z,99668.60
2023-01-13T06:02:49.881Z,99667.85
2023-01-13T06:06:53.268Z,99667.23
2023-01-13T06:10:56.752Z,99667.14
2023-01-13T06:14:59.997Z,99665.55
2023-01-13T06:19:03.294Z,99665.85
2023-01-13T06:23:11.020Z,99665.35
2023-01-13T06:27:15.636Z,99666.45
2023-01-13T06:31:19.799Z,99673.01
2023-01-13T06:35:28.691Z,99677.67
2023-01-13T06:39:32.449Z,99679.83
2023-01-13T06:43:36.115Z,99679.63
2023-01-13T06:47:41.142Z,99681.89
2023-01-13T06:51:44.456Z,99679.52
2023-01-13T06:55:47.740Z,99679.50
2023-01-13T06:59:51.081Z,99677.84
2023-01-13T07:03:54.325Z,99673.23
2023-01-13T07:07:57.596Z,99674.29
2023-01-13T07:12:00.866Z,99671.23
2023-01-13T07:16:06.602Z,99675.02
2023-01-13T07:20:10.870Z,99678.54
2023-01-13T07:24:14.258Z,99680.36
2023-01-13T07:28:17.950Z,99681.16
2023-01-13T07:32:21.568Z,99685.36
2023-01-13T07:36:24.798Z,99685.03
2023-01-13T07:40:28.154Z,99688.65
2023-01-13T07:44:31.591Z,99682.07
2023-01-13T07:48:35.356Z,99681.77
2023-01-13T07:52:38.677Z,99683.27
2023-01-13T07:56:41.975Z,99686.75
2023-01-13T08:00:45.219Z,99685.50
2023-01-13T08:04:48.482Z,99689.19
2023-01-13T08:08:52.036Z,99690.89
2023-01-13T08:13:13.986Z,99687.40
2023-01-13T08:17:19.157Z,99685.84
2023-01-13T08:21:23.761Z,99685.98
2023-01-13T08:25:28.728Z,99686.46
2023-01-13T08:29:32.046Z,99686.44
2023-01-13T08:33:38.044Z,99691.00
2023-01-13T08:37:41.708Z,99686.89
2023-01-13T08:41:57.792Z,99692.90
2023-01-13T08:46:05.015Z,99689.38
2023-01-13T08:50:09.370Z,99689.76
2023-01-13T08:54:13.468Z,99692.77
2023-01-13T08:58:16.729Z,99691.07
2023-01-13T09:02:22.147Z,99691.56
2023-01-13T09:06:25.457Z,99689.36
2023-01-13T09:10:28.702Z,99690.30
2023-01-13T09:14:34.549Z,99690.27
2023-01-13T09:18:37.764Z,99689.27
2023-01-13T09:22:41.709Z,99685.32
2023-01-13T09:26:45.161Z,99682.95
2023-01-13T09:30:48.393Z,99680.25
2023-01-13T09:35:00.833Z,99675.17
2023-01-13T09:39:04.508Z,99674.27
2023-01-13T09:43:36.038Z,99674.85
2023-01-13T09:47:51.484Z,99669.80
2023-01-13T09:52:12.426Z,99668.38
2023-01-13T09:56:15.736Z,99668.27
2023-01-13T10:00:25.626Z,99665.70
2023-01-13T10:04:28.929Z,99659.95
2023-01-13T10:08:35.674Z,99656.98
2023-01-13T10:12:58.509Z,99660.46
2023-01-13T10:17:23.852Z,99656.36
2023-01-13T10:21:49.011Z,99652.90
2023-01-13T10:26:24.321Z,99649.30
2023-01-13T10:30:34.388Z,99644.03
2023-01-13T10:34:51.662Z,99637.42
2023-01-13T10:39:08.807Z,99639.04
2023-01-13T10:43:12.043Z,99637.58
2023-01-13T10:47:22.931Z,99638.20
2023-01-13T10:51:26.067Z,99634.66
2023-01-13T10:55:37.165Z,99632.46
2023-01-13T10:59:40.408Z,99630.81
2023-01-13T11:03:45.433Z,99627.34
2023-01-13T11:07:52.767Z,99627.61
2023-01-13T11:11:57.338Z,99628.96
2023-01-13T11:16:14.181Z,99624.90
2023-01-13T11:20:46.806Z,99624.10
2023-01-13T11:24:59.040Z,99625.15
2023-01-13T11:29:17.991Z,99623.15
2023-01-13T11:34:11.010Z,99621.42
2023-01-13T11:38:31.237Z,99617.04
2023-01-13T11:42:59.359Z,99615.34
2023-01-13T11:47:02.982Z,99608.14
2023-01-13T11:51:15.284Z,99604.59
2023-01-13T11:55:47.710Z,99603.20
2023-01-13T12:00:12.384Z,99598.88
2023-01-13T12:04:23.813Z,99600.00
2023-01-13T12:08:54.927Z,99596.48
2023-01-13T12:13:40.615Z,99594.23
2023-01-13T12:17:56.228Z,99592.66
2023-01-13T12:22:11.808Z,99589.19
2023-01-13T12:26:17.225Z,99591.59
2023-01-13T12:30:46.021Z,99593.16
2023-01-13T12:35:27.741Z,99591.08
2023-01-13T12:39:58.990Z,99588.10
2023-01-13T12:44:18.261Z,99590.27
2023-01-13T12:48:44.834Z,99587.16
2023-01-13T12:52:49.740Z,99584.89
2023-01-13T12:56:54.243Z,99586.84
2023-01-13T13:01:01.028Z,99584.15
2023-01-13T13:05:23.152Z,99580.08
2023-01-13T13:09:31.924Z,99580.88
2023-01-13T13:13:49.252Z,99576.91
2023-01-13T13:18:13.973Z,99580.91
2023-01-13T13:22:21.216Z,99583.86
2023-01-13T13:26:37.155Z,99581.40
2023-01-13T13:30:50.354Z,99577.59
2023-01-13T13:35:05.679Z,99575.79
2023-01-13T13:39:41.213Z,99573.70
2023-01-13T13:44:05.103Z,99581.48
2023-01-13T13:48:28.091Z,99584.65
2023-01-13T13:52:42.774Z,99582.16
2023-01-13T13:56:47.944Z,99577.41
2023-01-13T14:00:51.477Z,99576.48
2023-01-13T14:05:19.181Z,99576.05
2023-01-13T14:09:23.944Z,99585.55
2023-01-13T14:13:29.624Z,99582.20
2023-01-13T14:17:34.770Z,99585.93
2023-01-13T14:21:38.741Z,99585.35
2023-01-13T14:25:52.363Z,99587.64
2023-01-13T14:29:58.521Z,99591.93
2023-01-13T14:34:31.196Z,99587.37
2023-01-13T14:38:27.009Z,99588.61
2023-01-13T14:42:31.756Z,99589.19
2023-01-13T14:46:40.496Z,99593.99
2023-01-13T14:50:46.778Z,99592.13
2023-01-13T14:54:53.170Z,99596.95
2023-01-13T14:58:56.741Z,99594.71
2023-01-13T15:03:08.448Z,99592.77
2023-01-13T15:07:26.573Z,99596.89
2023-01-13T15:11:29.951Z,99604.70
2023-01-13T15:15:35.458Z,99599.86
2023-01-13T15:19:38.738Z,99594.90
2023-01-13T15:23:42.854Z,99599.44
2023-01-13T15:27:50.859Z,99599.34
2023-01-13T15:31:54.183Z,99595.27
2023-01-13T15:35:57.549Z,99598.96
2023-01-13T15:40:01.013Z,99592.93
2023-01-13T15:44:23.118Z,99593.70
2023-01-13T15:48:30.946Z,99589.66
2023-01-13T15:52:34.266Z,99590.47
2023-01-13T15:56:39.362Z,99596.23
2023-01-13T16:00:43.119Z,99595.98
2023-01-13T16:04:46.420Z,99596.04
2023-01-13T16:08:49.699Z,99598.88
2023-01-13T16:12:55.953Z,99602.69
2023-01-13T16:16:59.530Z,99598.13
2023-01-13T16:21:02.812Z,99598.55
2023-01-13T16:25:06.504Z,99603.44
2023-01-13T16:29:09.979Z,99605.13
2023-01-13T16:33:13.736Z,99606.39
2023-01-13T16:37:23.084Z,99605.68
2023-01-13T16:41:26.960Z,99603.09
2023-01-13T16:45:31.373Z,99609.58
2023-01-13T16:49:35.128Z,99613.03
2023-01-13T16:53:38.532Z,99615.00
2023-01-13T16:57:42.411Z,99613.77
2023-01-13T17:01:46.013Z,99616.45
2023-01-13T17:05:49.282Z,99617.66
2023-01-13T17:09:52.937Z,99614.13
2023-01-13T17:13:56.309Z,99610.02
2023-01-13T17:17:59.538Z,99609.23
2023-01-13T17:22:02.828Z,99615.60
2023-01-13T17:26:06.375Z,99619.29
2023-01-13T17:30:11.315Z,99625.05
2023-01-13T17:34:15.145Z,99619.73
2023-01-13T17:38:18.478Z,99620.61
2023-01-13T17:42:24.609Z,99618.46
2023-01-13T17:46:28.205Z,99623.61
2023-01-13T17:50:34.345Z,99622.41
2023-01-13T17:54:37.989Z,99620.48
2023-01-13T17:58:42.323Z,99623.63
2023-01-13T18:02:46.099Z,99629.02
2023-01-13T18:06:50.505Z,99631.95
2023-01-13T18:10:55.373Z,99628.92
2023-01-13T18:14:59.840Z,99627.39
2023-01-13T18:19:22.947Z,99629.98
2023-01-13T18:23:45.178Z,99628.35
2023-01-13T18:27:48.810Z,99634.14
2023-01-13T18:31:52.970Z,99634.21
2023-01-13T18:35:56.655Z,99636.67
2023-01-13T18:40:00.283Z,99638.66
2023-01-13T18:44:03.867Z,99638.67
2023-01-13T18:48:07.413Z,99640.71
2023-01-13T18:52:11.270Z,99637.25
2023-01-13T18:56:14.668Z,99638.86
2023-01-13T19:00:20.603Z,99641.52
2023-01-13T19:04:24.025Z,99640.43
2023-01-13T19:08:27.573Z,99647.65
2023-01-13T19:12:31.255Z,99651.53
2023-01-13T19:16:35.101Z,99660.06
2023-01-13T19:20:38.445Z,99656.95
2023-01-13T19:24:44.637Z,99660.73
2023-01-13T19:28:48.870Z,99657.98
2023-01-13T19:32:54.084Z,99662.17
2023-01-13T19:36:57.911Z,99666.89
2023-01-13T19:41:07.051Z,99671.56
2023-01-13T19:45:29.719Z,99678.89
2023-01-13T19:49:33.884Z,99678.94
2023-01-13T19:53:37.181Z,99681.29
2023-01-13T19:57:41.125Z,99677.80
2023-01-13T20:01:44.639Z,99675.58
2023-01-13T20:05:48.083Z,99679.15
2023-01-13T20:09:56.438Z,99677.04
2023-01-13T20:14:01.264Z,99680.02
2023-01-13T20:18:04.673Z,99689.02
2023-01-13T20:22:09.216Z,99688.86
2023-01-13T20:26:12.523Z,99693.14
2023-01-13T20:30:16.171Z,99695.73
2023-01-13T20:34:19.993Z,99695.40
2023-01-13T20:38:23.251Z,99699.88
2023-01-13T20:42:29.439Z,99707.25
2023-01-13T20:46:32.921Z,99714.50
2023-01-13T20:50:36.170Z,99716.05
2023-01-13T20:54:41.024Z,99719.18
2023-01-13T20:58:44.425Z,99725.57
2023-01-13T21:02:47.812Z,99731.27
2023-01-13T21:06:51.274Z,99730.05
2023-01-13T21:11:04.689Z,99729.14
2023-01-13T21:15:17.909Z,99733.86
2023-01-13T21:19:21.203Z,99734.48
2023-01-13T21:23:24.515Z,99736.35
2023-01-13T21:27:28.162Z,99746.25
2023-01-13T21:31:31.503Z,99752.92
2023-01-13T21:35:39.005Z,99753.46
2023-01-13T21:39:43.203Z,99755.91
2023-01-13T21:44:05.822Z,99760.11
2023-01-13T21:48:09.444Z,99766.85
2023-01-13T21:52:13.883Z,99769.81
2023-01-13T21:56:17.129Z,99775.81
2023-01-13T22:00:22.621Z,99781.98
2023-01-13T22:04:25.952Z,99787.84
2023-01-13T22:08:29.402Z,99790.65
2023-01-13T22:12:32.848Z,99786.84
2023-01-13T22:16:39.515Z,99788.72
2023-01-13T22:20:42.787Z,99794.08
2023-01-13T22:24:47.923Z,99787.48
2023-01-13T22:28:51.824Z,99792.42
2023-01-13T22:32:55.249Z,99791.65
2023-01-13T22:36:59.708Z,99795.13
2023-01-13T22:41:09.107Z,99789.65
2023-01-13T22:45:13.684Z,99789.58
2023-01-13T22:49:17.934Z,99798.27
2023-01-13T22:53:21.969Z,99804.60
2023-01-13T22:57:25.179Z,99806.14
2023-01-13T23:01:31.122Z,99806.89
2023-01-13T23:05:34.923Z,99810.08
2023-01-13T23:09:38.124Z,99812.20
2023-01-13T23:13:43.448Z,99816.48
2023-01-13T23:17:50.461Z,99820.80
2023-01-13T23:21:53.784Z,99821.39
2023-01-13T23:25:57.020Z,99819.11
2023-01-13T23:30:01.504Z,99824.77
2023-01-13T23:34:04.954Z,99827.23
2023-01-13T23:38:08.150Z,99828.64
2023-01-13T23:42:11.385Z,99826.11
2023-01-13T23:46:16.768Z,99826.70
2023-01-13T23:50:20.008Z,99828.42
2023-01-13T23:54:23.316Z,99832.84
2023-01-13T23:58:27.996Z,99833.73
